Time;durP1;ratioP1;P1;durP2;ratioP2;P2;SDS_P1;SDS_P2;PMS_P1;PMS_P2;Temp;Humidity;BMP_temperature;BMP_pressure;BME280_temperature;BME280_humidity;BME280_pressure;Samples;Min_cycle;Max_cycle;Signal;HPM_P1;HPM_P2
2022/09/09 00:01:37;;;;;;;5.40;1.90;;;;;;;19.27;84.32;99622.59;4448684;32;33598;-78
2022/09/09 00:04:14;;;;;;;3.45;1.85;;;;;;;19.38;83.84;99620.94;4451903;32;33969;-79
2022/09/09 00:06:50;;;;;;;3.42;1.85;;;;;;;18.97;86.41;99618.91;4449949;32;34330;-77
2022/09/09 00:09:20;;;;;;;6.20;1.83;;;;;;;19.23;84.37;99612.94;4450043;32;33289;-79
2022/09/09 00:11:56;;;;;;;4.00;1.83;;;;;;;19.26;84.14;99615.59;4452421;32;34622;-77
2022/09/09 00:14:49;;;;;;;3.53;1.92;;;;;;;19.17;84.64;99621.66;4449627;32;33902;-77
2022/09/09 00:17:46;;;;;;;3.83;1.80;;;;;;;19.14;85.01;99631.25;4450224;32;33743;-79
2022/09/09 00:20:16;;;;;;;5.37;2.05;;;;;;;19.24;84.00;99633.09;4448450;32;33191;-78
2022/09/09 00:23:06;;;;;;;3.55;2.10;;;;;;;19.53;82.42;99635.00;4454847;32;33771;-78
2022/09/09 00:25:39;;;;;;;4.93;2.03;;;;;;;19.67;81.83;99627.22;4439559;32;33443;-78
2022/09/09 00:28:20;;;;;;;4.93;2.25;;;;;;;20.03;79.40;99619.53;4452740;32;33754;-79
2022/09/09 00:30:48;;;;;;;4.00;2.03;;;;;;;20.12;78.66;99626.56;4452995;32;33254;-78
2022/09/09 00:33:22;;;;;;;3.42;2.17;;;;;;;20.06;78.66;99628.28;4452538;32;34651;-80
2022/09/09 00:36:00;;;;;;;4.12;2.20;;;;;;;19.93;79.11;99622.97;4452939;32;33818;-79
2022/09/09 00:38:38;;;;;;;3.17;1.95;;;;;;;19.88;79.16;99623.84;4452633;32;34065;-79
2022/09/09 00:41:43;;;;;;;3.53;2.10;;;;;;;19.54;80.74;99631.53;4430182;32;32135;-80
2022/09/09 00:44:29;;;;;;;4.95;2.15;;;;;;;19.46;81.50;99636.72;4455035;32;34428;-80
2022/09/09 00:47:04;;;;;;;4.03;2.22;;;;;;;19.24;83.06;99627.84;4453505;32;33932;-78
2022/09/09 00:49:46;;;;;;;3.47;2.10;;;;;;;19.02;84.45;99616.28;4452838;32;33500;-79
2022/09/09 00:52:23;;;;;;;5.32;2.20;;;;;;;19.12;83.80;99622.50;4452146;32;32870;-77
2022/09/09 00:54:59;;;;;;;3.80;2.22;;;;;;;19.24;82.97;99622.59;4451016;32;34536;-77
2022/09/09 00:57:32;;;;;;;3.75;2.00;;;;;;;19.18;83.38;99627.78;4453959;32;33669;-80
2022/09/09 01:00:27;;;;;;;3.80;2.15;;;;;;;19.22;83.00;99626.97;4452983;32;33912;-78
2022/09/09 01:02:55;;;;;;;3.30;1.70;;;;;;;19.21;82.77;99630.44;4452918;32;34296;-79
2022/09/09 01:05:27;;;;;;;4.12;1.70;;;;;;;19.32;82.40;99639.28;4452342;32;33935;-77
2022/09/09 01:07:55;;;;;;;3.75;1.73;;;;;;;19.03;83.74;99639.06;4453526;32;33824;-77
2022/09/09 01:10:35;;;;;;;3.80;1.80;;;;;;;18.95;84.21;99641.63;4454036;32;34521;-77
2022/09/09 01:13:12;;;;;;;5.45;2.00;;;;;;;18.89;84.82;99645.94;4450877;32;33205;-77
2022/09/09 01:15:41;;;;;;;4.55;1.42;;;;;;;19.07;83.86;99647.84;4448730;32;33511;-78
2022/09/09 01:18:12;;;;;;;3.45;2.17;;;;;;;19.15;82.92;99648.78;4449510;32;34076;-79
2022/09/09 01:21:15;;;;;;;3.87;2.15;;;;;;;19.15;83.33;99656.66;4423423;32;32718;-78
2022/09/09 01:24:13;;;;;;;4.75;1.90;;;;;;;19.25;82.75;99655.84;4411416;32;32826;-79
2022/09/09 01:26:43;;;;;;;5.22;2.12;;;;;;;19.51;81.32;99663.03;4451423;32;34446;-79
2022/09/09 01:29:15;;;;;;;4.50;2.28;;;;;;;19.45;81.66;99659.50;4454271;32;32855;-78
2022/09/09 01:31:56;;;;;;;3.78;2.25;;;;;;;18.95;83.25;99667.88;4456060;32;34751;-79
2022/09/09 01:34:27;;;;;;;5.70;2.20;;;;;;;18.49;87.48;99667.41;4454490;32;33595;-79
2022/09/09 01:37:06;;;;;;;5.85;2.22;;;;;;;18.90;85.12;99659.06;4439421;32;33660;-79
2022/09/09 01:39:35;;;;;;;4.15;2.25;;;;;;;17.99;91.79;99670.31;4452513;32;32502;-79
2022/09/09 01:42:05;;;;;;;3.75;2.47;;;;;;;17.74;94.65;99675.19;4453276;32;33223;-79
2022/09/09 01:44:33;;;;;;;5.12;2.65;;;;;;;17.64;95.54;99674.19;4453380;32;33331;-78
2022/09/09 01:47:00;;;;;;;4.15;2.60;;;;;;;17.50;96.91;99678.38;4451697;32;33739;-79
2022/09/09 01:49:28;;;;;;;4.80;2.85;;;;;;;18.03;92.25;99693.09;4440366;32;32255;-79
2022/09/09 01:51:56;;;;;;;4.10;2.47;;;;;;;17.73;94.84;99688.25;4453293;32;33487;-79
2022/09/09 01:54:28;;;;;;;4.50;2.25;;;;;;;17.89;93.83;99690.28;4453378;32;33535;-79
2022/09/09 01:57:17;;;;;;;5.43;2.10;;;;;;;19.21;84.94;99683.81;4453039;32;33727;-79
2022/09/09 02:00:13;;;;;;;4.30;2.05;;;;;;;19.74;81.44;99679.84;4453516;32;33936;-80
2022/09/09 02:03:14;;;;;;;5.07;2.17;;;;;;;19.74;80.99;99677.22;4450760;32;33992;-79
2022/09/09 02:06:05;;;;;;;5.03;2.08;;;;;;;19.47;81.67;99671.75;4452888;32;34144;-79
2022/09/09 02:08:42;;;;;;;4.00;2.30;;;;;;;19.37;81.99;99669.09;4451277;32;33813;-80
2022/09/09 02:11:22;;;;;;;3.65;2.42;;;;;;;18.40;88.98;99672.53;4447210;32;33840;-80
2022/09/09 02:13:54;;;;;;;8.77;4.55;;;;;;;17.68;93.07;99673.37;4451819;32;33788;-80
2022/09/09 02:16:32;;;;;;;5.18;2.33;;;;;;;18.45;89.86;99668.25;4450675;32;33374;-80
2022/09/09 02:19:09;;;;;;;5.62;2.25;;;;;;;18.38;89.87;99671.66;4453007;32;34524;-79
2022/09/09 02:21:39;;;;;;;3.60;2.30;;;;;;;18.14;89.54;99681.00;4452402;32;34064;-79
2022/09/09 02:24:10;;;;;;;4.70;2.85;;;;;;;18.45;88.12;99676.97;4450498;32;34892;-80
2022/09/09 02:26:42;;;;;;;4.20;2.72;;;;;;;18.69;86.30;99671.97;4452763;32;34367;-79
2022/09/09 02:29:14;;;;;;;5.55;2.97;;;;;;;17.53;95.25;99661.81;4440616;32;31922;-80
2022/09/09 02:31:44;;;;;;;5.00;2.70;;;;;;;17.63;95.06;99671.53;4450494;32;33907;-79
2022/09/09 02:34:15;;;;;;;4.32;3.00;;;;;;;17.43;96.16;99659.03;4448616;32;34425;-80
2022/09/09 02:36:44;;;;;;;5.10;3.03;;;;;;;17.38;97.06;99663.31;4451699;32;33948;-79
2022/09/09 02:39:11;;;;;;;3.55;2.30;;;;;;;17.98;94.18;99656.34;4450480;32;33652;-79
2022/09/09 02:41:41;;;;;;;5.50;2.90;;;;;;;17.54;94.39;99656.59;4451165;32;33868;-79
2022/09/09 02:44:11;;;;;;;6.80;2.60;;;;;;;17.68;95.30;99656.78;4453049;32;34059;-80
2022/09/09 02:46:57;;;;;;;3.60;2.28;;;;;;;17.64;93.64;99657.59;4451928;32;32674;-80
2022/09/09 02:49:49;;;;;;;3.47;2.47;;;;;;;18.27;89.45;99667.16;4453486;32;33654;-80
2022/09/09 02:52:22;;;;;;;5.18;2.50;;;;;;;17.83;93.87;99662.22;4446029;32;33527;-80
2022/09/09 02:54:50;;;;;;;4.37;2.72;;;;;;;17.99;91.01;99671.19;4451195;32;33780;-79
2022/09/09 02:57:23;;;;;;;5.20;2.47;;;;;;;17.20;96.93;99670.91;4451203;32;31367;-80
2022/09/09 02:59:52;;;;;;;5.97;2.67;;;;;;;17.54;94.90;99667.06;4437519;32;34501;-79
2022/09/09 03:02:20;;;;;;;4.50;2.80;;;;;;;17.62;94.57;99675.03;4450716;32;34764;-79
2022/09/09 03:04:51;;;;;;;8.88;2.47;;;;;;;17.35;96.38;99680.75;4451607;32;33489;-79
2022/09/09 03:07:19;;;;;;;3.67;2.42;;;;;;;17.34;96.38;99685.06;4453001;32;33362;-80
2022/09/09 03:09:47;;;;;;;6.15;2.70;;;;;;;17.14;97.47;99681.28;4452912;32;33851;-80
2022/09/09 03:12:16;;;;;;;4.05;2.37;;;;;;;17.05;97.45;99675.00;4439595;32;33732;-79
2022/09/09 03:14:45;;;;;;;4.75;2.30;;;;;;;16.82;99.06;99685.09;4452694;32;33660;-79
2022/09/09 03:17:13;;;;;;;4.57;2.40;;;;;;;17.38;94.81;99681.66;4453004;32;33655;-80
2022/09/09 03:19:41;;;;;;;5.37;2.65;;;;;;;17.63;93.36;99682.88;4453488;32;34407;-80
2022/09/09 03:22:11;;;;;;;5.55;2.50;;;;;;;17.08;95.63;99687.28;4440202;32;34739;-80
2022/09/09 03:24:40;;;;;;;5.12;2.80;;;;;;;17.20;94.92;99684.00;4452893;32;33796;-81
2022/09/09 03:27:07;;;;;;;4.90;2.80;;;;;;;16.66;98.84;99686.53;4451534;32;33203;-80
2022/09/09 03:29:35;;;;;;;4.18;2.47;;;;;;;17.39;94.36;99682.56;4451341;32;33640;-80
2022/09/09 03:32:03;;;;;;;4.90;2.90;;;;;;;17.85;91.19;99681.50;4453377;32;34631;-79
2022/09/09 03:34:31;;;;;;;4.87;2.67;;;;;;;17.59;91.29;99674.97;4450536;32;32380;-79
2022/09/09 03:36:59;;;;;;;4.45;2.75;;;;;;;18.37;87.05;99682.97;4448989;32;32677;-78
2022/09/09 03:39:27;;;;;;;5.28;2.70;;;;;;;18.51;85.48;99686.66;4451458;32;34592;-79
2022/09/09 03:41:54;;;;;;;6.07;3.10;;;;;;;17.78;89.42;99679.63;4451036;32;32400;-79
2022/09/09 03:44:22;;;;;;;6.68;3.62;;;;;;;18.48;85.92;99689.22;4450101;32;33504;-79
2022/09/09 03:46:49;;;;;;;5.30;3.53;;;;;;;17.90;89.07;99689.41;4451869;32;34261;-79
2022/09/09 03:49:17;;;;;;;5.47;3.80;;;;;;;17.54;91.17;99692.34;4450443;32;33099;-79
2022/09/09 03:51:45;;;;;;;8.52;3.85;;;;;;;17.59;91.47;99695.94;4451321;32;34588;-79
2022/09/09 03:54:13;;;;;;;6.55;4.18;;;;;;;17.75;91.81;99692.69;4449442;32;34412;-79
2022/09/09 03:56:41;;;;;;;5.22;3.75;;;;;;;17.73;90.47;99698.75;4450171;32;33252;-79
2022/09/09 03:59:09;;;;;;;5.50;3.95;;;;;;;18.55;86.22;99704.19;4452375;32;34638;-79
2022/09/09 04:01:37;;;;;;;6.47;4.55;;;;;;;17.32;93.61;99702.50;4450835;32;34591;-79
2022/09/09 04:04:05;;;;;;;6.68;4.25;;;;;;;17.42;93.82;99708.75;4452204;32;34781;-79
2022/09/09 04:06:32;;;;;;;6.97;4.82;;;;;;;17.72;92.09;99703.13;4451630;32;33024;-79
2022/09/09 04:09:03;;;;;;;7.10;4.85;;;;;;;16.90;96.78;99698.31;4453109;32;33445;-79
2022/09/09 04:11:31;;;;;;;6.82;4.75;;;;;;;17.00;97.50;99700.25;4452547;32;34188;-79
2022/09/09 04:13:58;;;;;;;7.28;5.00;;;;;;;18.02;91.37;99701.78;4450552;32;34488;-79
2022/09/09 04:16:26;;;;;;;7.10;4.78;;;;;;;18.56;85.49;99705.97;4452093;32;33239;-79
2022/09/09 04:18:53;;;;;;;6.47;4.62;;;;;;;18.08;88.16;99708.00;4452597;32;34330;-79
2022/09/09 04:21:21;;;;;;;7.53;4.78;;;;;;;18.15;89.56;99708.94;4450700;32;34842;-79
2022/09/09 04:23:48;;;;;;;6.57;4.45;;;;;;;18.90;83.52;99705.44;4452171;32;33459;-79
2022/09/09 04:26:16;;;;;;;6.87;4.32;;;;;;;17.81;89.41;99702.34;4452471;32;32855;-80
2022/09/09 04:28:44;;;;;;;16.08;4.62;;;;;;;18.58;85.09;99696.34;4451126;32;32219;-80
2022/09/09 04:31:18;;;;;;;7.87;5.20;;;;;;;18.46;86.01;99698.81;4450547;32;33742;-79
2022/09/09 04:33:46;;;;;;;7.78;4.80;;;;;;;18.59;84.47;99700.72;4449278;32;33858;-79
2022/09/09 04:36:13;;;;;;;8.95;5.30;;;;;;;18.59;84.95;99700.72;4451342;32;33279;-79
2022/09/09 04:38:41;;;;;;;9.32;5.55;;;;;;;17.66;90.07;99688.19;4449958;32;33807;-79
2022/09/09 04:41:10;;;;;;;7.18;5.00;;;;;;;18.00;89.12;99682.53;4448214;32;33942;-79
2022/09/09 04:43:39;;;;;;;6.75;5.07;;;;;;;18.12;87.58;99681.81;4450463;32;33703;-79
2022/09/09 04:46:06;;;;;;;7.28;4.70;;;;;;;18.07;87.92;99680.03;4450188;32;34031;-79
2022/09/09 04:48:34;;;;;;;9.07;6.12;;;;;;;18.22;87.27;99681.97;4452175;32;34671;-79
2022/09/09 04:51:05;;;;;;;8.20;4.90;;;;;;;18.12;87.61;99687.06;4450347;32;33865;-79
2022/09/09 04:53:37;;;;;;;7.12;5.20;;;;;;;18.35;86.17;99685.62;4451798;32;34052;-79
2022/09/09 04:56:11;;;;;;;7.87;5.18;;;;;;;18.28;86.11;99683.78;4450943;32;33936;-80
2022/09/09 04:58:42;;;;;;;6.57;4.80;;;;;;;18.45;85.61;99683.97;4451701;32;33898;-79
2022/09/09 05:01:17;;;;;;;6.43;4.72;;;;;;;18.42;85.83;99694.41;4449776;32;33734;-79
2022/09/09 05:03:45;;;;;;;7.03;4.93;;;;;;;18.47;85.44;99703.22;4444637;32;33934;-78
2022/09/09 05:06:16;;;;;;;7.45;4.75;;;;;;;18.38;85.43;99706.59;4451820;32;33170;-78
2022/09/09 05:08:44;;;;;;;9.10;4.75;;;;;;;18.18;86.71;99709.00;4450896;32;33644;-78
2022/09/09 05:11:24;;;;;;;7.12;4.95;;;;;;;18.17;86.74;99707.22;4442056;32;34118;-78
2022/09/09 05:13:53;;;;;;;6.32;4.57;;;;;;;18.18;86.92;99703.75;4449003;32;34683;-78
2022/09/09 05:16:21;;;;;;;7.32;4.75;;;;;;;18.06;88.00;99704.50;4449020;32;33449;-79
2022/09/09 05:18:50;;;;;;;7.28;5.32;;;;;;;18.13;87.34;99710.69;4451348;32;33564;-78
2022/09/09 05:21:20;;;;;;;7.62;4.93;;;;;;;18.26;86.88;99702.09;4449418;32;33108;-78
2022/09/09 05:23:47;;;;;;;6.97;5.28;;;;;;;18.31;86.10;99698.66;4437173;32;34071;-80
2022/09/09 05:26:17;;;;;;;7.45;4.85;;;;;;;17.75;90.11;99690.06;4448251;32;33417;-80
2022/09/09 05:28:46;;;;;;;8.35;5.35;;;;;;;18.11;88.32;99699.28;4453922;32;33691;-79
2022/09/09 05:31:15;;;;;;;7.53;5.30;;;;;;;18.18;87.61;99709.00;4450692;32;33848;-81
2022/09/09 05:33:45;;;;;;;7.07;5.28;;;;;;;18.25;86.85;99721.34;4451874;32;33247;-80
2022/09/09 05:36:16;;;;;;;8.45;5.12;;;;;;;17.20;94.41;99720.63;4453039;32;32887;-81
2022/09/09 05:38:45;;;;;;;7.18;5.00;;;;;;;17.18;96.19;99714.50;4452115;32;33957;-78
2022/09/09 05:41:17;;;;;;;7.97;5.20;;;;;;;18.07;88.43;99718.47;4453083;32;35255;-80
2022/09/09 05:43:48;;;;;;;8.07;5.60;;;;;;;17.54;92.06;99721.16;4452030;32;33875;-82
2022/09/09 05:46:20;;;;;;;7.10;4.82;;;;;;;17.41;92.71;99718.37;4451873;32;33578;-80
2022/09/09 05:48:53;;;;;;;6.37;4.40;;;;;;;17.20;95.28;99724.13;4454166;32;33886;-80
2022/09/09 05:51:23;;;;;;;7.95;5.32;;;;;;;17.24;95.48;99725.06;4454987;32;34002;-81
2022/09/09 05:53:51;;;;;;;6.65;5.00;;;;;;;18.06;90.78;99724.59;4454148;32;33765;-80
2022/09/09 05:56:25;;;;;;;9.02;5.50;;;;;;;17.70;92.80;99723.16;4454114;32;34049;-80
2022/09/09 05:58:56;;;;;;;7.37;5.05;;;;;;;18.37;88.74;99719.69;4454344;32;33813;-80
2022/09/09 06:01:26;;;;;;;7.47;5.30;;;;;;;17.64;92.12;99725.69;4454780;32;33996;-82
2022/09/09 06:03:54;;;;;;;7.25;5.00;;;;;;;17.76;92.17;99720.63;4452731;32;33792;-80
2022/09/09 06:06:25;;;;;;;8.18;5.12;;;;;;;18.18;91.38;99719.50;4451724;32;34180;-82
2022/09/09 06:08:57;;;;;;;9.63;5.03;;;;;;;18.10;91.28;99721.13;4453298;32;33887;-80
2022/09/09 06:11:30;;;;;;;7.32;4.72;;;;;;;18.50;88.18;99716.34;4450391;32;34110;-81
2022/09/09 06:13:59;;;;;;;5.37;4.18;;;;;;;19.30;84.37;99709.31;4454975;32;33773;-79
2022/09/09 06:16:28;;;;;;;6.28;4.40;;;;;;;18.48;87.18;99718.09;4448901;32;33545;-80
2022/09/09 06:18:57;;;;;;;7.32;4.50;;;;;;;18.49;88.55;99714.62;4452978;32;33946;-82
2022/09/09 06:21:27;;;;;;;7.25;4.85;;;;;;;17.88;91.85;99705.09;4454176;32;33406;-81
2022/09/09 06:23:55;;;;;;;7.32;4.45;;;;;;;17.93;93.11;99706.94;4450819;32;34019;-79
2022/09/09 06:26:30;;;;;;;5.90;4.40;;;;;;;18.31;90.87;99719.63;4453548;32;32488;-80
2022/09/09 06:28:58;;;;;;;7.30;4.20;;;;;;;18.35;89.96;99721.41;4441922;32;33054;-79
2022/09/09 06:31:29;;;;;;;7.12;4.62;;;;;;;18.33;90.94;99723.16;4454041;32;34737;-81
2022/09/09 06:33:59;;;;;;;6.55;4.20;;;;;;;18.11;90.59;99725.50;4453131;32;32414;-79
2022/09/09 06:36:30;;;;;;;9.93;4.35;;;;;;;18.37;90.70;99730.19;4452780;32;33194;-80
2022/09/09 06:38:59;;;;;;;5.82;3.62;;;;;;;18.22;91.25;99725.66;4453046;32;33086;-81
2022/09/09 06:41:28;;;;;;;5.30;3.65;;;;;;;18.12;91.08;99723.75;4440263;32;33585;-80
2022/09/09 06:43:56;;;;;;;7.93;4.05;;;;;;;18.13;92.11;99721.16;4453847;32;33653;-81
2022/09/09 06:46:30;;;;;;;5.95;3.90;;;;;;;18.82;87.68;99722.00;4454029;32;33148;-80
2022/09/09 06:49:00;;;;;;;4.30;3.08;;;;;;;18.85;85.42;99729.00;4442400;32;33800;-81
2022/09/09 06:51:33;;;;;;;5.40;3.78;;;;;;;18.80;85.12;99725.47;4454637;32;33825;-81
2022/09/09 06:54:03;;;;;;;4.95;3.28;;;;;;;18.86;86.69;99736.91;4453585;32;34011;-81
2022/09/09 06:56:37;;;;;;;4.78;3.12;;;;;;;18.46;86.60;99733.78;4453245;32;32267;-79
2022/09/09 06:59:08;;;;;;;4.68;3.50;;;;;;;18.67;86.44;99730.53;4452972;32;33825;-79
2022/09/09 07:01:39;;;;;;;4.82;3.08;;;;;;;18.82;85.16;99736.88;4451294;32;33835;-78
2022/09/09 07:04:09;;;;;;;4.60;2.80;;;;;;;18.33;87.64;99737.16;4452751;32;33650;-82
2022/09/09 07:06:58;;;;;;;6.50;3.37;;;;;;;18.47;86.78;99739.94;4453370;32;33362;-81
2022/09/09 07:09:27;;;;;;;5.35;3.20;;;;;;;18.24;87.81;99737.91;4450464;32;34474;-82
2022/09/09 07:11:55;;;;;;;7.10;3.83;;;;;;;18.24;86.82;99743.16;4454094;32;34689;-82
2022/09/09 07:14:22;;;;;;;5.85;3.80;;;;;;;18.17;89.69;99743.94;4453706;32;33864;-79
2022/09/09 07:16:51;;;;;;;5.78;3.78;;;;;;;18.00;90.50;99732.34;4453253;32;33936;-78
2022/09/09 07:19:24;;;;;;;5.35;3.05;;;;;;;18.15;89.47;99737.78;4451911;32;34201;-83
2022/09/09 07:21:52;;;;;;;5.50;3.28;;;;;;;19.05;86.30;99732.72;4452383;32;34693;-79
2022/09/09 07:24:20;;;;;;;6.03;3.30;;;;;;;18.83;86.40;99741.22;4451934;32;33340;-83
2022/09/09 07:26:49;;;;;;;5.53;3.45;;;;;;;18.35;87.81;99742.41;4452942;32;33780;-82
2022/09/09 07:29:16;;;;;;;5.82;3.30;;;;;;;18.45;88.42;99749.53;4446038;32;33927;-81
2022/09/09 07:31:48;;;;;;;5.90;3.25;;;;;;;19.58;83.15;99743.66;4451376;32;34532;-80
2022/09/09 07:34:16;;;;;;;5.25;3.25;;;;;;;19.54;83.00;99741.87;4453381;32;34049;-81
2022/09/09 07:36:44;;;;;;;5.22;2.80;;;;;;;19.23;84.05;99753.00;4452902;32;34025;-81
2022/09/09 07:39:13;;;;;;;4.85;2.65;;;;;;;19.45;82.17;99754.06;4453028;32;34636;-82
2022/09/09 07:41:46;;;;;;;3.42;2.58;;;;;;;19.43;83.10;99750.56;4453256;32;34496;-80
2022/09/09 07:44:17;;;;;;;5.85;2.85;;;;;;;19.12;83.72;99764.25;4447304;32;33835;-81
2022/09/09 07:46:45;;;;;;;5.95;2.50;;;;;;;19.05;83.21;99758.97;4451040;32;33535;-82
2022/09/09 07:49:14;;;;;;;3.40;2.30;;;;;;;19.66;82.06;99757.72;4453859;32;33325;-81
2022/09/09 07:51:45;;;;;;;4.15;2.17;;;;;;;19.98;79.24;99755.34;4452163;32;34246;-84
2022/09/09 07:54:15;;;;;;;3.25;1.90;;;;;;;19.56;80.86;99755.91;4453805;32;33757;-77
2022/09/09 07:56:43;;;;;;;3.58;2.10;;;;;;;20.66;74.62;99749.53;4452680;32;35526;-80
2022/09/09 07:59:11;;;;;;;3.87;2.00;;;;;;;20.73;73.32;99746.03;4453789;32;34069;-78
2022/09/09 08:01:50;;;;;;;3.17;1.90;;;;;;;20.73;72.26;99751.31;4451209;32;33892;-77
2022/09/09 08:04:19;;;;;;;3.67;1.70;;;;;;;20.16;76.32;99751.91;4453149;32;33800;-81
2022/09/09 08:06:49;;;;;;;2.72;1.80;;;;;;;20.51;74.98;99748.56;4452430;32;33174;-81
2022/09/09 08:09:17;;;;;;;5.57;1.85;;;;;;;21.07;73.99;99748.72;4453128;32;33558;-82
2022/09/09 08:11:46;;;;;;;2.70;1.40;;;;;;;21.21;71.81;99739.09;4453193;32;33739;-78
2022/09/09 08:14:14;;;;;;;2.95;1.40;;;;;;;22.34;66.20;99747.75;4453296;32;33894;-81
2022/09/09 08:16:44;;;;;;;2.15;1.35;;;;;;;23.79;61.12;99736.22;4453350;32;33869;-78
2022/09/09 08:19:17;;;;;;;2.75;1.30;;;;;;;23.70;61.25;99743.34;4453648;32;33464;-78
2022/09/09 08:21:45;;;;;;;3.85;1.27;;;;;;;22.52;63.77;99745.03;4452058;32;34530;-82
2022/09/09 08:24:14;;;;;;;2.35;1.25;;;;;;;23.47;63.10;99742.66;4453303;32;33825;-77
2022/09/09 08:26:47;;;;;;;2.78;1.37;;;;;;;23.70;60.94;99738.03;4452829;32;33270;-79
2022/09/09 08:29:16;;;;;;;2.58;1.30;;;;;;;22.68;63.15;99740.56;4452435;32;33914;-80
2022/09/09 08:31:46;;;;;;;3.58;1.25;;;;;;;23.40;62.18;99738.31;4452032;32;34064;-80
2022/09/09 08:34:17;;;;;;;3.58;1.37;;;;;;;25.24;57.05;99730.81;4451155;32;33989;-81
2022/09/09 08:36:46;;;;;;;1.90;1.50;;;;;;;23.65;60.18;99741.63;4452259;32;33211;-80
2022/09/09 08:39:15;;;;;;;3.05;1.35;;;;;;;24.14;60.47;99742.03;4453425;32;34019;-81
2022/09/09 08:41:54;;;;;;;2.45;1.10;;;;;;;25.43;55.46;99735.84;4449283;32;33819;-83
2022/09/09 08:44:31;;;;;;;9.38;1.37;;;;;;;23.42;60.05;99742.69;4453964;32;34430;-81
2022/09/09 08:47:05;;;;;;;3.17;1.83;;;;;;;23.34;60.80;99750.69;4446612;32;33486;-80
2022/09/09 08:50:01;;;;;;;2.90;1.15;;;;;;;23.53;60.36;99745.25;4449622;32;34369;-81
2022/09/09 08:52:39;;;;;;;5.85;1.20;;;;;;;22.48;62.10;99751.19;4450037;32;34251;-77
2022/09/09 08:55:22;;;;;;;2.53;1.10;;;;;;;22.61;62.29;99752.03;4451872;32;33972;-81
2022/09/09 08:57:56;;;;;;;1.55;0.93;;;;;;;22.61;63.04;99746.75;4453019;32;33026;-80
2022/09/09 09:00:34;;;;;;;2.95;1.10;;;;;;;22.64;62.98;99751.13;4452094;32;34523;-80
2022/09/09 09:03:32;;;;;;;2.40;1.00;;;;;;;23.67;58.62;99735.41;4450779;32;34877;-77
2022/09/09 09:06:22;;;;;;;3.50;1.00;;;;;;;22.74;62.04;99752.84;4451089;32;33372;-81
2022/09/09 09:09:22;;;;;;;3.78;1.17;;;;;;;22.41;61.57;99749.50;4452386;32;33632;-80
2022/09/09 09:11:53;;;;;;;2.37;0.98;;;;;;;23.48;59.47;99741.78;4454099;32;33903;-79
2022/09/09 09:14:24;;;;;;;2.45;1.05;;;;;;;23.48;57.82;99747.06;4450730;32;33775;-77
2022/09/09 09:17:08;;;;;;;5.40;1.00;;;;;;;24.32;54.89;99743.56;4454491;32;34225;-78
2022/09/09 09:19:39;;;;;;;1.65;0.88;;;;;;;24.39;52.67;99739.06;4444456;32;32991;-78
2022/09/09 09:22:25;;;;;;;2.15;1.00;;;;;;;24.54;52.17;99738.03;4453047;32;33700;-81
2022/09/09 09:25:20;;;;;;;2.08;1.45;;;;;;;24.20;54.67;99726.94;4454235;32;33912;-80
2022/09/09 09:27:48;;;;;;;;;;;;;;;24.73;51.99;99720.97;4454897;32;33653;-79
2022/09/09 09:30:22;;;;;;;4.65;1.00;;;;;;;25.07;48.43;99722.22;4454743;32;32356;-81
2022/09/09 09:33:08;;;;;;;3.35;1.05;;;;;;;25.21;49.79;99725.56;4454572;32;32666;-80
2022/09/09 09:35:36;;;;;;;3.10;0.80;;;;;;;25.43;47.88;99718.13;4454500;32;33883;-84
2022/09/09 09:38:17;;;;;;;1.75;0.70;;;;;;;25.25;49.88;99710.50;4454603;32;33643;-83
2022/09/09 09:41:05;;;;;;;2.22;0.90;;;;;;;24.17;52.71;99716.41;4450363;32;33301;-80
2022/09/09 09:43:35;;;;;;;2.58;0.62;;;;;;;25.15;47.66;99709.75;4452641;32;34417;-80
2022/09/09 09:46:04;;;;;;;1.60;0.80;;;;;;;25.55;45.57;99713.53;4451070;32;33913;-82
2022/09/09 09:48:46;;;;;;;1.87;0.80;;;;;;;25.67;45.35;99715.94;4453430;32;33399;-82
2022/09/09 09:51:16;;;;;;;1.85;0.70;;;;;;;25.48;46.79;99718.06;4454344;32;33603;-82
2022/09/09 09:53:45;;;;;;;1.37;0.57;;;;;;;26.06;45.45;99727.63;4453530;32;33504;-80
2022/09/09 09:56:14;;;;;;;1.40;0.65;;;;;;;25.78;45.29;99729.03;4453185;32;33837;-81
2022/09/09 09:58:49;;;;;;;3.50;0.62;;;;;;;25.94;44.02;99719.91;4452879;32;34198;-83
2022/09/09 10:01:24;;;;;;;2.67;0.70;;;;;;;25.37;43.78;99727.97;4454953;32;33637;-80
2022/09/09 10:04:12;;;;;;;0.90;0.65;;;;;;;24.42;47.47;99719.63;4452539;32;34522;-80
2022/09/09 10:06:40;;;;;;;1.95;0.70;;;;;;;25.44;46.34;99719.00;4454191;32;33913;-84
2022/09/09 10:09:25;;;;;;;1.98;0.77;;;;;;;24.86;45.98;99713.72;4453973;32;34047;-82
2022/09/09 10:12:03;;;;;;;2.72;0.85;;;;;;;25.54;45.09;99715.31;4438886;32;33261;-82
2022/09/09 10:14:45;;;;;;;1.83;0.65;;;;;;;26.18;44.29;99715.00;4454248;32;34383;-83
2022/09/09 10:17:31;;;;;;;2.28;0.60;;;;;;;25.12;46.67;99710.66;4452718;32;34818;-83
2022/09/09 10:20:21;;;;;;;1.52;0.60;;;;;;;26.69;39.58;99712.16;4445790;32;34054;-85
2022/09/09 10:23:13;;;;;;;3.05;0.60;;;;;;;26.50;40.54;99709.00;4451892;32;33399;-81
2022/09/09 10:25:50;;;;;;;1.98;0.60;;;;;;;26.53;40.34;99710.72;4453585;32;34671;-83
2022/09/09 10:28:30;;;;;;;0.80;0.45;;;;;;;26.18;41.33;99713.22;4448813;32;33859;-81
2022/09/09 10:31:00;;;;;;;0.47;0.40;;;;;;;25.52;39.30;99709.16;4441860;32;33950;-79
2022/09/09 10:33:35;;;;;;;1.12;0.40;;;;;;;26.33;39.56;99717.34;4452682;32;32587;-89
2022/09/09 10:36:17;;;;;;;0.70;0.40;;;;;;;26.28;40.14;99719.22;4449007;32;32579;-81
2022/09/09 10:38:47;;;;;;;1.10;0.52;;;;;;;27.35;37.65;99701.75;4452645;32;33986;-84
2022/09/09 10:41:33;;;;;;;1.40;0.40;;;;;;;27.51;36.25;99703.09;4451717;32;34580;-81
2022/09/09 10:44:27;;;;;;;1.15;0.50;;;;;;;26.85;37.69;99708.25;4448296;32;33811;-83
2022/09/09 10:47:20;;;;;;;1.60;0.50;;;;;;;26.94;38.59;99706.28;4452633;32;33762;-83
2022/09/09 10:50:12;;;;;;;1.00;0.50;;;;;;;27.17;36.49;99709.25;4451031;32;33635;-84
2022/09/09 10:53:01;;;;;;;3.20;0.60;;;;;;;27.15;37.29;99700.44;4452328;32;34115;-85
2022/09/09 10:55:37;;;;;;;1.55;0.50;;;;;;;27.12;37.28;99697.88;4452752;32;34181;-82
2022/09/09 10:58:06;;;;;;;1.45;0.52;;;;;;;27.56;36.43;99701.19;4453275;32;34526;-82
2022/09/09 11:00:36;;;;;;;2.30;0.68;;;;;;;27.15;38.44;99695.13;4450001;32;34865;-83
2022/09/09 11:03:06;;;;;;;4.75;1.00;;;;;;;28.15;35.69;99700.47;4452361;32;33508;-83
2022/09/09 11:05:46;;;;;;;1.25;0.40;;;;;;;26.66;37.49;99701.63;4449636;32;33337;-88
2022/09/09 11:08:18;;;;;;;3.62;0.60;;;;;;;26.58;38.64;99700.84;4451561;32;33683;-85
2022/09/09 11:10:54;;;;;;;1.23;0.40;;;;;;;26.97;38.96;99691.13;4450724;32;32059;-83
2022/09/09 11:13:26;;;;;;;3.35;0.70;;;;;;;27.72;36.25;99674.16;4451305;32;33508;-84
2022/09/09 11:16:38;;;;;;;2.80;0.50;;;;;;;28.19;35.07;99680.81;4451486;32;33533;-86
2022/09/09 11:19:25;;;;;;;1.20;0.62;;;;;;;27.11;38.56;99674.84;4452344;32;33549;-85
2022/09/09 11:21:54;;;;;;;1.65;0.80;;;;;;;27.78;37.48;99672.22;4449753;32;33678;-82
2022/09/09 11:24:29;;;;;;;1.08;0.55;;;;;;;26.57;39.38;99680.53;4448836;32;34945;-85
2022/09/09 11:27:12;;;;;;;1.45;0.70;;;;;;;26.91;39.43;99679.75;4449677;32;32506;-83
2022/09/09 11:29:58;;;;;;;3.22;0.57;;;;;;;26.32;41.20;99691.69;4449010;32;33934;-81
2022/09/09 11:32:57;;;;;;;2.37;0.82;;;;;;;26.78;40.52;99690.69;4449271;32;33689;-82
2022/09/09 11:35:52;;;;;;;3.92;0.75;;;;;;;26.77;40.61;99698.69;4450901;32;33646;-84
2022/09/09 11:38:27;;;;;;;5.35;0.80;;;;;;;26.47;41.44;99701.97;4449711;32;34165;-83
2022/09/09 11:40:57;;;;;;;2.05;0.60;;;;;;;27.23;39.04;99694.91;4451271;32;35120;-85
2022/09/09 11:43:29;;;;;;;2.42;0.70;;;;;;;25.97;40.41;99687.97;4443694;32;33694;-83
2022/09/09 11:46:02;;;;;;;4.25;0.70;;;;;;;27.02;40.20;99677.72;4451516;32;33926;-81
2022/09/09 11:48:57;;;;;;;1.23;0.60;;;;;;;26.46;41.46;99684.31;4449050;32;33885;-81
2022/09/09 11:51:28;;;;;;;1.37;0.70;;;;;;;26.57;40.08;99691.16;4459144;32;33765;-81
2022/09/09 11:53:58;;;;;;;3.55;1.02;;;;;;;26.63;40.21;99693.69;4447904;32;33046;-91
2022/09/09 11:56:43;;;;;;;5.85;0.80;;;;;;;26.37;41.33;99700.44;4453251;32;33347;-87
2022/09/09 11:59:28;;;;;;;2.72;0.80;;;;;;;25.74;42.86;99690.19;4446160;32;33620;-86
2022/09/09 12:01:58;;;;;;;2.37;0.62;;;;;;;26.11;42.26;99686.84;4451698;32;33606;-84
2022/09/09 12:04:37;;;;;;;1.10;0.65;;;;;;;26.25;41.88;99684.75;4439451;32;33905;-85
2022/09/09 12:07:21;;;;;;;2.15;0.73;;;;;;;26.29;41.91;99683.81;4448631;32;33710;-82